Ideal Beach, New Jersey
Current Conditions -  °F | °C
As of 7:15 AM on Saturday 25 Oct 2014 (Local Time) from KLDJ Reporting Station
Clear Clear  
Wind Chill: 51°   Ceiling: Unl
Heat Index: 51°   Visibility: 10mi
Dew Point: 36°   Wind: 3mph
Humidity: 56%   Direction: 260°W
Pressure: 29.89"   Gusts: NA
Location:  40.4416°N, 74.1294°W
Report Text: KLDJ 251115Z AUTO 26003KT 10SM CLR 11/02 A2989 RMK AO2 T01070023
Loading
Personal Weather Stations






























Interactive Weather Map
Tropical Storm Tracking
New forecast layout! Learn more

10-Day Weather Forecast

Advertisements
Track Severe Weather on mobile